Time;durP1;ratioP1;P1;durP2;ratioP2;P2;SDS_P1;SDS_P2;PMS_P1;PMS_P2;Temp;Humidity;BMP_temperature;BMP_pressure;BME280_temperature;BME280_humidity;BME280_pressure;Samples;Min_cycle;Max_cycle;Signal;HPM_P1;HPM_P2
2023/01/13 00:01:23;;;;;;;26.73;5.30;;;9.70;99.90;;;;;;6218994;23;20020;-95
2023/01/13 00:03:49;;;;;;;32.83;4.90;;;8.60;99.90;;;;;;6247611;23;20019;-88
2023/01/13 00:06:18;;;;;;;27.80;4.03;;;9.70;99.90;;;;;;6246949;23;20039;-93
2023/01/13 00:08:48;;;;;;;29.17;5.43;;;9.40;99.90;;;;;;6218745;23;20023;-91
2023/01/13 00:11:14;;;;;;;26.20;4.63;;;9.50;99.90;;;;;;6218644;23;20104;-89
2023/01/13 00:13:40;;;;;;;30.83;4.80;;;9.70;99.90;;;;;;6218935;23;20056;-89
2023/01/13 00:16:09;;;;;;;30.65;5.07;;;9.10;99.90;;;;;;6219134;23;20031;-92
2023/01/13 00:18:35;;;;;;;30.80;5.53;;;8.30;99.90;;;;;;6218187;23;20739;-91
2023/01/13 00:21:23;;;;;;;31.20;5.80;;;9.30;99.90;;;;;;6247278;23;20468;-93
2023/01/13 00:23:50;;;;;;;25.63;4.10;;;8.90;99.90;;;;;;6245109;23;20055;-94
2023/01/13 00:26:19;;;;;;;33.67;4.88;;;8.30;99.90;;;;;;6246042;23;20496;-95
2023/01/13 00:28:45;;;;;;;38.45;4.82;;;9.00;99.90;;;;;;6220143;23;20016;-90
2023/01/13 00:31:14;;;;;;;29.33;5.35;;;9.30;99.90;;;;;;6221810;23;20024;-95
2023/01/13 00:33:41;;;;;;;33.42;5.07;;;8.80;99.90;;;;;;6247033;23;20016;-92
2023/01/13 00:36:09;;;;;;;32.00;5.88;;;8.20;99.90;;;;;;6218671;23;20024;-90
2023/01/13 00:38:37;;;;;;;41.60;7.15;;;8.10;99.90;;;;;;6245832;23;20008;-90
2023/01/13 00:41:08;;;;;;;39.17;6.25;;;9.00;99.90;;;;;;6244705;23;20026;-94
2023/01/13 00:43:35;;;;;;;41.67;5.93;;;8.50;99.90;;;;;;6245383;23;20449;-90
2023/01/13 00:46:04;;;;;;;43.42;6.68;;;8.90;99.90;;;;;;6217806;23;20352;-92
2023/01/13 00:48:30;;;;;;;36.92;5.78;;;9.10;99.90;;;;;;6217714;23;20512;-94
2023/01/13 00:51:13;;;;;;;35.67;5.00;;;8.70;99.90;;;;;;6245374;23;20055;-93
2023/01/13 00:53:42;;;;;;;33.95;5.68;;;7.90;99.90;;;;;;6218180;23;20100;-90
2023/01/13 00:56:13;;;;;;;35.83;6.65;;;9.10;99.90;;;;;;6244952;23;20020;-93
2023/01/13 00:58:39;;;;;;;38.83;5.53;;;9.10;99.90;;;;;;6245332;23;20497;-92
2023/01/13 01:01:11;;;;;;;33.60;7.15;;;8.50;99.90;;;;;;6218705;23;20020;-91
2023/01/13 01:03:37;;;;;;;39.00;5.97;;;8.90;99.90;;;;;;6245260;23;20016;-90
2023/01/13 01:06:09;;;;;;;29.70;4.55;;;8.80;99.90;;;;;;6244585;23;20087;-91
2023/01/13 01:08:35;;;;;;;41.92;5.85;;;7.80;99.90;;;;;;6217603;23;20018;-90
2023/01/13 01:11:16;;;;;;;39.88;5.47;;;8.60;99.90;;;;;;6216633;23;20093;-91
2023/01/13 01:13:43;;;;;;;33.40;6.95;;;8.60;99.90;;;;;;6243980;23;20020;-90
2023/01/13 01:16:20;;;;;;;42.08;7.30;;;7.80;99.90;;;;;;6216675;23;20027;-94
2023/01/13 01:18:48;;;;;;;40.65;6.03;;;8.70;99.90;;;;;;6244396;23;20090;-92
2023/01/13 01:21:15;;;;;;;49.15;6.43;;;8.60;99.90;;;;;;6192247;23;20028;-94
2023/01/13 01:23:41;;;;;;;41.50;6.22;;;8.30;99.90;;;;;;6216809;23;20442;-91
2023/01/13 01:26:11;;;;;;;38.47;6.55;;;7.70;99.90;;;;;;6243851;23;20020;-90
2023/01/13 01:28:36;;;;;;;32.17;6.28;;;7.70;99.90;;;;;;6217008;23;20048;-95
2023/01/13 01:31:14;;;;;;;34.72;5.40;;;8.10;99.90;;;;;;6244408;23;20035;-90
2023/01/13 01:33:40;;;;;;;27.65;5.47;;;7.70;99.90;;;;;;6243815;23;20334;-92
2023/01/13 01:36:06;;;;;;;35.42;5.30;;;8.90;99.90;;;;;;6216573;23;20020;-90
2023/01/13 01:38:32;;;;;;;38.10;5.88;;;7.70;99.90;;;;;;6243756;23;20019;-90
2023/01/13 01:40:58;;;;;;;35.83;5.13;;;8.80;99.90;;;;;;6190651;23;20016;-90
2023/01/13 01:43:58;;;;;;;40.75;6.05;;;8.80;99.90;;;;;;6244670;23;20016;-88
2023/01/13 01:46:30;;;;;;;43.90;6.05;;;7.70;99.90;;;;;;6243744;23;20535;-91
2023/01/13 01:49:05;;;;;;;41.63;6.47;;;7.70;99.90;;;;;;6218637;23;20051;-95
2023/01/13 01:51:35;;;;;;;41.72;5.80;;;7.80;99.90;;;;;;6244772;23;20018;-91
2023/01/13 01:54:03;;;;;;;40.25;5.38;;;7.70;99.90;;;;;;6244221;23;20027;-89
2023/01/13 01:56:29;;;;;;;38.45;6.00;;;7.90;99.90;;;;;;6244742;23;20008;-93
2023/01/13 01:58:55;;;;;;;42.90;5.43;;;8.00;99.90;;;;;;6219627;23;20449;-89
2023/01/13 02:01:21;;;;;;;35.10;4.90;;;8.80;99.90;;;;;;6218466;23;20020;-90
2023/01/13 02:03:54;;;;;;;36.38;5.32;;;9.00;99.90;;;;;;6245569;23;20023;-91
2023/01/13 02:06:20;;;;;;;39.63;5.32;;;7.70;99.90;;;;;;6249223;23;20031;-94
2023/01/13 02:08:46;;;;;;;36.58;5.55;;;8.60;99.90;;;;;;6222486;23;20051;-94
2023/01/13 02:14:15;;;;;;;31.55;5.88;;;7.70;99.90;;;;;;6245561;23;20073;-93
2023/01/13 02:17:02;;;;;;;28.75;4.72;;;7.80;99.90;;;;;;6244023;23;20123;-93
2023/01/13 02:19:53;;;;;;;36.40;4.85;;;7.80;99.90;;;;;;6216207;23;20054;-88
2023/01/13 02:22:42;;;;;;;35.30;5.43;;;7.80;99.90;;;;;;6217099;23;20020;-93
2023/01/13 02:25:41;;;;;;;43.33;5.75;;;8.30;99.90;;;;;;6244754;23;20388;-93
2023/01/13 02:28:26;;;;;;;29.92;4.20;;;7.80;99.90;;;;;;6192708;23;20020;-90
2023/01/13 02:34:06;;;;;;;42.45;6.35;;;8.70;99.90;;;;;;6244768;23;20456;-92
2023/01/13 02:36:51;;;;;;;33.05;5.15;;;8.60;99.90;;;;;;6244642;23;20020;-87
2023/01/13 02:39:16;;;;;;;34.72;6.15;;;7.80;99.90;;;;;;6218797;23;20020;-91
2023/01/13 02:45:16;;;;;;;55.22;6.13;;;7.80;99.90;;;;;;6153812;23;20017;-91
2023/01/13 02:47:46;;;;;;;41.90;5.32;;;7.80;99.90;;;;;;6151823;23;20025;-89
2023/01/13 02:50:18;;;;;;;46.30;6.35;;;8.90;99.90;;;;;;6151727;23;20041;-92
2023/01/13 02:52:57;;;;;;;28.63;5.50;;;7.80;99.90;;;;;;6152380;23;20064;-91
2023/01/13 02:55:33;;;;;;;37.90;5.25;;;7.90;99.90;;;;;;6126292;23;20065;-93
2023/01/13 02:58:00;;;;;;;36.35;5.50;;;9.00;99.90;;;;;;6152455;23;20513;-93
2023/01/13 03:00:28;;;;;;;30.58;4.47;;;8.20;99.90;;;;;;6129461;23;20018;-92
2023/01/13 03:02:53;;;;;;;40.90;5.80;;;8.60;99.90;;;;;;6130297;23;20180;-92
2023/01/13 03:05:19;;;;;;;35.75;6.03;;;8.80;99.90;;;;;;6108550;23;21332;-93
2023/01/13 03:08:01;;;;;;;34.92;5.70;;;7.90;99.90;;;;;;6154226;23;20076;-90
2023/01/13 03:10:48;;;;;;;32.08;4.95;;;7.90;99.90;;;;;;6128118;23;20765;-91
2023/01/13 03:14:00;;;;;;;33.83;5.18;;;7.90;99.90;;;;;;6157909;23;20109;-89
2023/01/13 03:17:02;;;;;;;28.45;4.72;;;7.90;99.90;;;;;;6156053;23;20025;-93
2023/01/13 03:19:40;;;;;;;28.08;4.88;;;7.90;99.90;;;;;;6187016;23;20097;-91
2023/01/13 03:22:17;;;;;;;36.75;4.93;;;7.80;99.90;;;;;;6247174;23;20046;-89
2023/01/13 03:24:52;;;;;;;24.75;4.32;;;7.80;99.90;;;;;;6220845;23;20432;-89
2023/01/13 03:27:35;;;;;;;39.70;5.75;;;8.50;99.90;;;;;;6221671;23;20019;-94
2023/01/13 03:30:14;;;;;;;32.05;4.38;;;7.90;99.90;;;;;;6221622;23;20450;-93
2023/01/13 03:32:47;;;;;;;29.38;4.38;;;7.90;99.90;;;;;;6245907;23;20015;-92
2023/01/13 03:35:38;;;;;;;34.53;5.25;;;8.80;99.90;;;;;;6246418;23;20023;-92
2023/01/13 03:38:11;;;;;;;29.55;4.90;;;8.80;99.90;;;;;;6247962;23;20024;-89
2023/01/13 03:40:44;;;;;;;34.78;5.63;;;9.10;99.90;;;;;;6246300;23;20022;-92
2023/01/13 03:46:05;;;;;;;27.88;5.10;;;9.10;99.90;;;;;;6245832;23;20028;-93
2023/01/13 03:48:35;;;;;;;35.88;5.47;;;9.00;99.90;;;;;;6245770;23;20022;-92
2023/01/13 03:51:09;;;;;;;49.88;5.90;;;8.10;99.90;;;;;;6247096;23;20054;-91
2023/01/13 03:53:39;;;;;;;34.10;4.38;;;9.00;99.90;;;;;;6246353;23;20016;-91
2023/01/13 03:56:22;;;;;;;33.95;5.45;;;8.00;99.90;;;;;;6246122;23;20020;-89
2023/01/13 03:58:52;;;;;;;29.48;4.05;;;8.90;99.90;;;;;;6218326;23;20392;-92
2023/01/13 04:01:23;;;;;;;33.78;5.10;;;8.00;99.90;;;;;;6195621;23;20020;-91
2023/01/13 04:04:08;;;;;;;34.20;5.03;;;8.20;99.90;;;;;;6247314;23;20055;-89
2023/01/13 04:07:13;;;;;;;35.33;5.33;;;7.90;99.90;;;;;;6248860;23;20019;-94
2023/01/13 04:10:08;;;;;;;35.08;5.20;;;7.90;99.90;;;;;;6248246;23;20363;-92
2023/01/13 04:13:02;;;;;;;32.63;4.55;;;7.80;99.90;;;;;;6244475;23;20028;-93
2023/01/13 04:15:33;;;;;;;40.80;4.87;;;7.80;99.90;;;;;;6221205;23;20027;-92
2023/01/13 04:18:09;;;;;;;33.42;5.47;;;8.10;99.90;;;;;;6221664;23;20251;-95
2023/01/13 04:20:35;;;;;;;34.85;4.93;;;7.80;99.90;;;;;;6248376;23;20012;-94
2023/01/13 04:23:01;;;;;;;35.30;5.85;;;8.70;99.90;;;;;;6247998;23;20345;-93
2023/01/13 04:25:26;;;;;;;32.38;5.03;;;8.60;99.90;;;;;;6245651;23;20059;-90
2023/01/13 04:27:52;;;;;;;30.60;4.93;;;7.80;99.90;;;;;;6245885;23;20476;-92
2023/01/13 04:30:18;;;;;;;37.78;4.72;;;8.90;99.90;;;;;;6242173;23;20024;-94
2023/01/13 04:32:43;;;;;;;29.90;4.50;;;7.80;99.90;;;;;;6246023;23;20070;-88
2023/01/13 04:35:09;;;;;;;24.63;4.22;;;8.90;99.90;;;;;;6245791;23;20016;-92
2023/01/13 04:37:35;;;;;;;34.15;6.28;;;8.90;99.90;;;;;;6245166;23;20017;-91
2023/01/13 04:40:00;;;;;;;42.83;6.65;;;8.90;99.90;;;;;;6241945;23;20024;-88
2023/01/13 04:42:26;;;;;;;40.40;5.65;;;7.80;99.90;;;;;;6245528;23;20016;-89
2023/01/13 04:44:52;;;;;;;34.92;5.50;;;8.80;99.90;;;;;;6218770;23;20024;-90
2023/01/13 04:47:18;;;;;;;39.40;5.07;;;7.90;99.90;;;;;;6245211;23;20051;-94
2023/01/13 04:49:43;;;;;;;27.08;4.45;;;7.90;99.90;;;;;;6245330;23;20358;-89
2023/01/13 04:52:09;;;;;;;40.05;5.07;;;8.20;99.90;;;;;;6245316;23;20024;-92
2023/01/13 04:54:35;;;;;;;36.00;4.88;;;9.00;99.90;;;;;;6218534;23;20015;-90
2023/01/13 04:57:00;;;;;;;31.92;4.53;;;8.70;99.90;;;;;;6245741;23;20096;-91
2023/01/13 04:59:26;;;;;;;31.77;4.93;;;8.60;99.90;;;;;;6246866;23;20027;-95
2023/01/13 05:01:52;;;;;;;37.88;6.57;;;8.90;99.90;;;;;;6246769;23;20070;-95
2023/01/13 05:04:18;;;;;;;29.88;4.35;;;9.00;99.90;;;;;;6218375;23;20031;-91
2023/01/13 05:06:44;;;;;;;30.85;5.53;;;8.10;99.90;;;;;;6244813;23;20012;-92
2023/01/13 05:09:11;;;;;;;37.17;5.15;;;9.20;99.90;;;;;;6244760;23;20020;-89
2023/01/13 05:17:07;;;;;;;30.05;5.05;;;8.10;99.90;;;;;;6245886;23;20516;-91
2023/01/13 05:19:35;;;;;;;29.88;3.80;;;9.00;99.90;;;;;;6246366;23;20027;-86
2023/01/13 05:27:31;;;;;;;34.28;4.68;;;8.10;99.90;;;;;;6218317;23;20024;-93
2023/01/13 05:29:56;;;;;;;31.52;4.55;;;9.20;99.90;;;;;;6193936;23;20012;-96
2023/01/13 05:32:23;;;;;;;20.35;3.63;;;8.90;99.90;;;;;;6217593;23;20095;-91
2023/01/13 05:34:49;;;;;;;24.88;3.78;;;8.20;99.90;;;;;;6244635;23;20062;-92
2023/01/13 05:37:15;;;;;;;20.70;3.78;;;9.10;99.90;;;;;;6244177;23;20016;-92
2023/01/13 05:45:11;;;;;;;21.35;3.30;;;9.40;99.90;;;;;;6245355;23;20457;-90
2023/01/13 05:47:37;;;;;;;26.20;3.45;;;9.50;99.90;;;;;;6245566;23;20019;-92
2023/01/13 05:50:03;;;;;;;26.10;3.42;;;9.20;99.90;;;;;;6245140;23;20016;-92
2023/01/13 05:52:29;;;;;;;28.38;4.57;;;7.90;99.90;;;;;;6245636;23;20423;-90
2023/01/13 05:54:54;;;;;;;28.10;4.65;;;8.30;99.90;;;;;;6219146;23;20055;-85
2023/01/13 05:57:21;;;;;;;24.35;4.38;;;9.30;99.90;;;;;;6242913;23;20035;-92
2023/01/13 05:59:46;;;;;;;23.00;4.85;;;8.90;99.90;;;;;;6244965;23;20016;-90
2023/01/13 06:02:12;;;;;;;29.80;5.05;;;8.60;99.90;;;;;;6217458;23;20067;-92
2023/01/13 06:04:37;;;;;;;20.23;3.55;;;9.00;99.90;;;;;;6246300;23;20027;-92
2023/01/13 06:07:03;;;;;;;26.85;3.85;;;8.20;99.90;;;;;;6242773;23;20023;-91
2023/01/13 06:09:29;;;;;;;35.42;5.03;;;8.20;99.90;;;;;;6217681;23;20089;-91
2023/01/13 06:11:58;;;;;;;22.98;3.08;;;8.30;99.90;;;;;;6244473;23;20012;-95
2023/01/13 06:14:24;;;;;;;25.75;4.15;;;8.20;99.90;;;;;;6217933;23;20067;-90
2023/01/13 06:16:50;;;;;;;32.72;5.28;;;9.30;99.90;;;;;;6242069;23;20020;-92
2023/01/13 06:19:16;;;;;;;25.90;4.03;;;9.40;99.90;;;;;;6217627;23;20024;-87
2023/01/13 06:21:43;;;;;;;24.90;4.40;;;9.00;99.90;;;;;;6216488;23;20024;-91
2023/01/13 06:24:09;;;;;;;27.15;4.03;;;9.40;99.90;;;;;;6215872;23;20028;-91
2023/01/13 06:26:40;;;;;;;17.35;3.30;;;9.40;99.90;;;;;;6243976;23;20019;-93
2023/01/13 06:29:07;;;;;;;26.58;4.07;;;8.20;99.90;;;;;;6244152;22;20028;-92
2023/01/13 06:31:37;;;;;;;21.88;3.22;;;8.40;99.90;;;;;;6244052;23;20016;-92
2023/01/13 06:34:11;;;;;;;24.15;3.75;;;9.30;99.90;;;;;;6216860;23;20019;-93
2023/01/13 06:36:42;;;;;;;36.83;4.25;;;8.20;99.90;;;;;;6243779;23;20020;-92
2023/01/13 06:39:10;;;;;;;24.17;3.75;;;8.90;99.90;;;;;;6215621;23;20341;-88
2023/01/13 06:44:22;;;;;;;22.40;3.40;;;8.40;99.90;;;;;;6245223;23;20024;-90
2023/01/13 06:46:48;;;;;;;20.27;3.33;;;8.00;99.90;;;;;;6244071;23;20012;-92
2023/01/13 06:49:13;;;;;;;24.13;3.85;;;8.50;99.90;;;;;;6216759;23;20154;-91
2023/01/13 06:51:39;;;;;;;20.17;3.83;;;8.80;99.90;;;;;;6244725;23;20017;-89
2023/01/13 06:54:05;;;;;;;24.98;3.60;;;8.10;99.90;;;;;;6244554;23;20450;-93
2023/01/13 06:56:30;;;;;;;21.20;4.65;;;8.90;99.90;;;;;;6217141;23;20322;-88
2023/01/13 06:58:56;;;;;;;22.48;3.60;;;8.50;99.90;;;;;;6216240;23;20020;-88
2023/01/13 07:01:21;;;;;;;24.85;3.80;;;9.00;99.90;;;;;;6217224;23;20019;-92
2023/01/13 07:03:47;;;;;;;23.10;3.70;;;7.50;99.90;;;;;;6216593;23;20062;-87
2023/01/13 07:06:13;;;;;;;19.90;2.40;;;8.10;99.90;;;;;;6217794;23;20016;-90
2023/01/13 07:08:39;;;;;;;21.20;3.10;;;7.60;99.90;;;;;;6244190;23;20027;-90
2023/01/13 07:11:05;;;;;;;23.63;4.22;;;7.60;99.90;;;;;;6243268;23;20392;-87
2023/01/13 07:16:14;;;;;;;20.08;2.90;;;7.50;99.90;;;;;;6242826;23;20024;-89
2023/01/13 07:18:40;;;;;;;22.70;2.95;;;8.40;99.90;;;;;;6244331;23;20023;-92
2023/01/13 07:21:09;;;;;;;23.38;2.90;;;8.20;99.90;;;;;;6243562;23;20018;-89
2023/01/13 07:23:37;;;;;;;28.45;4.22;;;7.90;99.90;;;;;;6191597;23;20055;-91
2023/01/13 07:26:03;;;;;;;17.33;2.83;;;7.30;99.90;;;;;;6217579;23;20024;-92
2023/01/13 07:28:30;;;;;;;29.73;4.80;;;7.30;99.90;;;;;;6192314;23;20017;-91
2023/01/13 07:30:57;;;;;;;25.95;3.55;;;7.50;99.90;;;;;;6194251;23;20059;-93
2023/01/13 07:33:22;;;;;;;28.67;3.95;;;8.40;99.90;;;;;;6243971;23;20187;-89
2023/01/13 07:35:55;;;;;;;20.65;3.72;;;8.20;99.90;;;;;;6217286;23;20055;-87
2023/01/13 07:38:21;;;;;;;24.10;3.97;;;7.30;99.90;;;;;;6217577;23;20018;-95
2023/01/13 07:40:47;;;;;;;22.92;3.55;;;8.40;99.90;;;;;;6217627;23;20370;-86
2023/01/13 07:43:30;;;;;;;19.35;3.22;;;7.80;99.90;;;;;;6243320;23;20042;-88
2023/01/13 07:46:01;;;;;;;20.65;3.22;;;8.40;99.90;;;;;;6217851;23;20016;-87
2023/01/13 07:48:27;;;;;;;19.95;3.80;;;7.20;99.90;;;;;;6217375;23;20073;-88
2023/01/13 07:50:54;;;;;;;28.67;4.13;;;8.30;99.90;;;;;;6192998;23;20539;-87
2023/01/13 07:53:21;;;;;;;32.00;4.18;;;8.40;99.90;;;;;;6245961;23;20024;-91
2023/01/13 07:55:46;;;;;;;26.95;3.55;;;7.10;99.90;;;;;;6218875;23;20091;-83
2023/01/13 07:58:12;;;;;;;29.45;4.25;;;8.30;99.90;;;;;;6219771;23;20097;-88
2023/01/13 08:00:39;;;;;;;24.83;3.53;;;8.00;99.90;;;;;;6246391;23;20471;-85
2023/01/13 08:03:07;;;;;;;25.58;3.97;;;7.80;99.90;;;;;;6241503;23;20016;-85
2023/01/13 08:05:34;;;;;;;23.45;3.85;;;8.40;99.90;;;;;;6191252;23;20031;-92
2023/01/13 08:08:00;;;;;;;22.83;3.58;;;8.10;99.90;;;;;;6216719;23;20024;-88
2023/01/13 08:10:26;;;;;;;26.13;4.10;;;8.10;99.90;;;;;;6217344;23;20344;-91
2023/01/13 08:15:36;;;;;;;27.85;4.60;;;8.30;99.90;;;;;;6246265;23;20062;-91
2023/01/13 08:18:02;;;;;;;35.03;3.60;;;7.30;99.90;;;;;;6245103;23;20016;-90
2023/01/13 08:20:27;;;;;;;32.67;4.00;;;7.40;99.90;;;;;;6245557;23;20130;-88
2023/01/13 08:22:58;;;;;;;20.50;3.53;;;8.30;99.90;;;;;;6218041;23;20012;-89
2023/01/13 08:25:26;;;;;;;33.10;3.83;;;7.40;99.90;;;;;;6218246;23;20024;-85
2023/01/13 08:27:51;;;;;;;28.40;4.28;;;7.50;99.90;;;;;;6192331;23;20024;-87
2023/01/13 08:30:18;;;;;;;30.92;3.45;;;8.60;99.90;;;;;;6245789;23;20095;-84
2023/01/13 08:32:45;;;;;;;18.65;3.40;;;8.50;99.90;;;;;;6217782;23;20382;-87
2023/01/13 08:35:10;;;;;;;21.67;3.78;;;8.70;99.90;;;;;;6217370;23;20016;-92
2023/01/13 08:40:24;;;;;;;33.75;4.40;;;7.60;99.90;;;;;;6280580;22;20023;-85
2023/01/13 08:42:51;;;;;;;32.25;4.50;;;8.60;99.90;;;;;;6304866;22;20386;-83
2023/01/13 08:45:17;;;;;;;26.85;4.35;;;8.70;99.90;;;;;;6274481;22;20023;-86
2023/01/13 08:47:43;;;;;;;26.15;4.65;;;8.90;99.90;;;;;;6277880;22;20027;-86
2023/01/13 08:50:31;;;;;;;29.20;4.57;;;8.80;99.90;;;;;;6299858;22;20087;-88
2023/01/13 08:53:04;;;;;;;30.25;3.97;;;7.70;99.90;;;;;;6276567;22;20351;-85
2023/01/13 08:55:40;;;;;;;24.70;4.65;;;7.70;99.90;;;;;;6306443;22;20094;-91
2023/01/13 08:58:42;;;;;;;19.55;3.58;;;8.50;99.90;;;;;;6306288;22;20008;-94
2023/01/13 09:01:23;;;;;;;30.15;4.60;;;7.70;99.90;;;;;;6215533;23;20424;-88
2023/01/13 09:03:54;;;;;;;25.83;3.53;;;8.70;99.90;;;;;;6242605;23;20048;-86
2023/01/13 09:06:20;;;;;;;30.42;3.90;;;8.90;99.90;;;;;;6216416;23;20364;-86
2023/01/13 09:08:46;;;;;;;23.98;3.72;;;8.80;99.90;;;;;;6189503;23;20016;-89
2023/01/13 09:14:23;;;;;;;21.45;3.83;;;8.90;99.90;;;;;;6239755;23;20024;-87
2023/01/13 09:16:49;;;;;;;11.52;2.58;;;8.30;99.90;;;;;;6214641;23;20030;-87
2023/01/13 09:19:17;;;;;;;24.27;2.78;;;8.50;99.90;;;;;;6240392;23;20016;-84
2023/01/13 09:21:42;;;;;;;18.50;3.15;;;8.20;99.90;;;;;;6213701;23;20051;-88
2023/01/13 09:24:14;;;;;;;15.02;2.47;;;8.40;99.90;;;;;;6214638;23;20337;-89
2023/01/13 09:26:49;;;;;;;22.52;3.22;;;7.30;99.90;;;;;;6214534;23;20095;-86
2023/01/13 09:29:15;;;;;;;23.23;3.38;;;8.50;99.90;;;;;;6239470;23;20012;-88
2023/01/13 09:31:59;;;;;;;21.70;3.58;;;8.20;99.90;;;;;;6214499;23;20475;-87
2023/01/13 09:37:45;;;;;;;28.23;3.90;;;7.30;99.90;;;;;;6251163;22;20030;-84
2023/01/13 09:40:17;;;;;;;29.23;3.95;;;7.90;99.90;;;;;;6213326;23;20165;-86
2023/01/13 09:46:42;;;;;;;21.30;3.45;;;7.40;99.90;;;;;;6209006;23;20071;-86
2023/01/13 09:49:03;;;;;;;28.92;4.72;;;7.30;99.90;;;;;;6208823;23;20067;-92
2023/01/13 09:51:41;;;;;;;29.40;4.63;;;7.20;99.90;;;;;;6181688;23;20505;-90
2023/01/13 09:54:32;;;;;;;30.52;3.60;;;8.10;99.90;;;;;;6183698;23;20108;-86
2023/01/13 09:56:59;;;;;;;28.90;4.40;;;8.30;99.90;;;;;;6169541;22;20082;-85
2023/01/13 09:59:33;;;;;;;32.15;4.10;;;8.30;99.90;;;;;;6278701;22;20355;-84
2023/01/13 10:02:17;;;;;;;23.45;3.17;;;8.40;99.90;;;;;;6281106;22;20022;-84
2023/01/13 10:05:26;;;;;;;18.45;3.30;;;7.80;99.90;;;;;;6280580;22;20026;-84
2023/01/13 10:08:01;;;;;;;15.65;2.45;;;7.30;99.90;;;;;;6182492;22;20021;-83
2023/01/13 10:10:46;;;;;;;25.70;3.33;;;8.40;99.90;;;;;;6207646;23;20408;-83
2023/01/13 10:13:24;;;;;;;15.60;2.95;;;8.60;99.90;;;;;;6207711;23;20020;-87
2023/01/13 10:16:11;;;;;;;17.05;3.22;;;7.30;99.90;;;;;;6208394;23;20024;-85
2023/01/13 10:19:16;;;;;;;22.42;4.32;;;8.10;99.90;;;;;;6182689;23;20031;-85
2023/01/13 10:22:07;;;;;;;30.60;2.72;;;7.30;99.90;;;;;;6183713;23;20024;-84
2023/01/13 10:24:45;;;;;;;22.88;2.83;;;8.50;99.90;;;;;;6183126;23;20036;-86
2023/01/13 10:27:33;;;;;;;22.55;3.28;;;7.30;99.90;;;;;;6208751;23;20025;-86
2023/01/13 10:30:16;;;;;;;22.73;3.30;;;7.40;99.90;;;;;;6182294;23;20488;-88
2023/01/13 10:32:45;;;;;;;16.70;2.80;;;7.40;99.90;;;;;;6208330;23;20051;-86
2023/01/13 10:35:11;;;;;;;21.85;2.78;;;8.20;99.90;;;;;;6183947;23;20074;-85
2023/01/13 10:37:37;;;;;;;21.48;3.70;;;8.40;99.90;;;;;;6184030;23;20052;-85
2023/01/13 10:40:18;;;;;;;25.08;2.95;;;7.50;99.90;;;;;;6183316;23;20505;-85
2023/01/13 10:43:17;;;;;;;15.73;3.22;;;7.50;99.90;;;;;;6182976;23;20839;-87
2023/01/13 10:45:58;;;;;;;23.27;3.42;;;7.40;99.90;;;;;;6330669;22;20098;-88
2023/01/13 10:48:50;;;;;;;14.38;2.60;;;7.50;99.90;;;;;;6307394;22;20015;-84
2023/01/13 10:51:29;;;;;;;16.60;3.63;;;7.50;99.90;;;;;;6334805;22;20048;-87
2023/01/13 10:53:57;;;;;;;25.08;3.13;;;8.50;99.90;;;;;;6281744;22;20019;-84
2023/01/13 10:56:49;;;;;;;21.63;3.03;;;8.80;99.90;;;;;;6336105;22;20027;-93
2023/01/13 10:59:25;;;;;;;16.98;2.75;;;7.50;99.90;;;;;;6302080;22;20502;-85
2023/01/13 11:02:29;;;;;;;13.75;2.92;;;7.60;99.90;;;;;;6307148;22;20027;-87
2023/01/13 11:05:01;;;;;;;24.50;2.72;;;7.60;99.90;;;;;;6306938;22;20071;-90
2023/01/13 11:07:56;;;;;;;23.45;3.17;;;7.70;99.90;;;;;;6335110;22;20015;-85
2023/01/13 11:10:27;;;;;;;19.35;2.63;;;8.20;99.90;;;;;;6299701;22;20510;-84
2023/01/13 11:13:30;;;;;;;15.57;2.88;;;8.70;99.90;;;;;;6299598;22;20094;-83
2023/01/13 11:16:24;;;;;;;16.25;2.85;;;7.70;99.90;;;;;;6299926;22;20325;-83
2023/01/13 11:22:16;;;;;;;28.10;3.55;;;8.60;99.90;;;;;;6299957;22;20026;-85
2023/01/13 11:28:46;;;;;;;20.60;3.63;;;8.90;99.90;;;;;;6247469;22;20027;-85
2023/01/13 11:31:32;;;;;;;22.67;2.55;;;7.80;99.90;;;;;;6125434;23;20021;-85
2023/01/13 11:34:40;;;;;;;9.05;2.13;;;7.80;99.90;;;;;;6146650;23;20029;-84
2023/01/13 11:37:27;;;;;;;16.15;2.38;;;7.90;99.90;;;;;;6101028;23;20025;-86
2023/01/13 11:40:30;;;;;;;16.35;2.30;;;9.00;99.90;;;;;;6125519;23;20021;-87
2023/01/13 11:43:33;;;;;;;16.23;2.22;;;8.00;99.90;;;;;;6126164;23;20025;-85
2023/01/13 11:46:00;;;;;;;14.50;2.58;;;7.20;99.90;;;;;;6126256;23;20462;-85
2023/01/13 11:48:29;;;;;;;23.40;3.90;;;9.10;99.90;;;;;;6150734;23;20092;-90
2023/01/13 11:51:51;;;;;;;19.42;2.55;;;8.10;99.90;;;;;;6146460;23;20144;-85
2023/01/13 11:54:36;;;;;;;14.57;2.30;;;8.10;99.90;;;;;;6125876;23;20017;-84
2023/01/13 11:57:23;;;;;;;19.00;3.42;;;8.20;99.90;;;;;;6150388;23;20068;-85
2023/01/13 12:00:28;;;;;;;17.40;3.00;;;8.20;99.90;;;;;;6150561;23;20800;-84
2023/01/13 12:03:09;;;;;;;18.30;3.63;;;8.20;99.90;;;;;;6101061;23;20043;-85
2023/01/13 12:06:20;;;;;;;15.93;2.80;;;8.20;99.90;;;;;;6129700;22;20021;-93
2023/01/13 12:09:13;;;;;;;14.52;2.17;;;8.10;99.90;;;;;;6126477;23;20486;-85
2023/01/13 12:12:26;;;;;;;14.65;2.38;;;8.10;99.90;;;;;;6102795;23;20029;-85
2023/01/13 12:15:22;;;;;;;21.40;1.83;;;8.30;99.90;;;;;;6127084;23;20101;-86
2023/01/13 12:18:28;;;;;;;23.17;2.85;;;8.20;99.90;;;;;;6278609;22;20026;-85
2023/01/13 12:21:20;;;;;;;17.02;1.98;;;8.30;99.90;;;;;;6278875;22;20024;-90
2023/01/13 12:24:08;;;;;;;14.75;2.55;;;8.30;99.90;;;;;;6305895;22;20011;-89
2023/01/13 12:27:21;;;;;;;20.80;2.88;;;9.50;99.90;;;;;;6277769;22;20017;-87
2023/01/13 12:29:58;;;;;;;13.38;2.50;;;7.80;99.90;;;;;;6190506;23;20028;-84
2023/01/13 12:32:37;;;;;;;15.18;2.30;;;8.40;99.90;;;;;;6216346;23;20012;-88
2023/01/13 12:35:28;;;;;;;16.25;2.38;;;9.20;99.90;;;;;;6246009;22;20076;-87
2023/01/13 12:38:11;;;;;;;20.50;2.33;;;8.50;99.90;;;;;;6277804;22;20022;-89
2023/01/13 12:40:54;;;;;;;12.18;2.05;;;8.50;99.90;;;;;;6278312;22;20026;-86
2023/01/13 12:46:37;;;;;;;12.38;1.92;;;8.50;99.90;;;;;;6277655;22;20023;-86
2023/01/13 12:49:04;;;;;;;14.20;2.47;;;9.30;99.90;;;;;;6252841;22;20017;-86
2023/01/13 12:51:48;;;;;;;15.23;2.38;;;9.70;99.90;;;;;;6303398;22;20069;-87
2023/01/13 12:55:01;;;;;;;22.10;2.92;;;8.60;99.90;;;;;;6278382;22;20018;-92
2023/01/13 12:57:31;;;;;;;14.32;1.75;;;9.60;99.90;;;;;;6277843;22;20019;-90
2023/01/13 13:00:09;;;;;;;14.27;2.35;;;9.00;99.90;;;;;;6276591;22;20490;-88
2023/01/13 13:03:14;;;;;;;11.15;2.22;;;8.50;99.90;;;;;;6279919;22;20030;-92
2023/01/13 13:06:00;;;;;;;14.55;1.88;;;9.40;99.90;;;;;;6277964;22;20030;-89
2023/01/13 13:08:47;;;;;;;12.90;2.03;;;8.50;99.90;;;;;;6307253;22;20030;-94
2023/01/13 13:14:01;;;;;;;12.82;1.58;;;9.60;99.90;;;;;;6308889;22;20015;-96
2023/01/13 13:16:29;;;;;;;11.77;1.98;;;8.50;99.90;;;;;;6282610;22;20629;-91
2023/01/13 13:19:32;;;;;;;17.85;2.13;;;8.50;99.90;;;;;;6281632;22;20440;-93
2023/01/13 13:22:18;;;;;;;14.60;2.00;;;8.50;99.90;;;;;;6282060;22;20053;-84
2023/01/13 13:24:58;;;;;;;7.80;2.00;;;9.60;99.90;;;;;;6270549;22;20024;-87
2023/01/13 13:27:36;;;;;;;7.70;1.77;;;9.80;99.90;;;;;;6274770;22;20101;-88
2023/01/13 13:30:34;;;;;;;13.00;1.88;;;9.30;99.90;;;;;;6276713;22;20016;-88
2023/01/13 13:33:32;;;;;;;15.10;2.90;;;8.60;99.90;;;;;;6277218;22;20026;-90
2023/01/13 13:36:30;;;;;;;14.90;2.10;;;8.70;99.90;;;;;;6299199;22;20024;-90
2023/01/13 13:47:44;;;;;;;11.77;2.08;;;9.50;99.90;;;;;;6275415;22;20026;-85
2023/01/13 13:50:19;;;;;;;12.73;2.22;;;9.50;99.90;;;;;;6275225;22;20023;-85
2023/01/13 13:52:57;;;;;;;;;;;8.80;99.90;;;;;;6274079;22;20058;-86
2023/01/13 13:55:26;;;;;;;16.63;2.45;;;8.60;99.90;;;;;;6274646;22;19923;-85
2023/01/13 13:57:54;;;;;;;12.15;1.60;;;9.60;99.90;;;;;;6272316;22;20506;-88
2023/01/13 14:00:34;;;;;;;9.15;1.75;;;8.60;99.90;;;;;;6273672;22;20073;-91
2023/01/13 14:03:20;;;;;;;11.70;2.33;;;8.60;99.90;;;;;;6274166;22;20012;-89
2023/01/13 14:05:53;;;;;;;12.23;1.60;;;8.60;99.90;;;;;;6272583;22;20026;-85
2023/01/13 14:08:20;;;;;;;13.27;1.77;;;9.10;99.90;;;;;;6275014;22;20015;-88
2023/01/13 14:10:46;;;;;;;12.55;1.70;;;8.50;99.90;;;;;;6276258;22;20042;-90
2023/01/13 14:13:25;;;;;;;8.55;1.38;;;9.30;99.90;;;;;;6275979;22;20011;-88
2023/01/13 14:15:59;;;;;;;15.40;2.17;;;9.10;99.90;;;;;;6274790;22;20080;-83
2023/01/13 14:18:27;;;;;;;9.90;1.95;;;8.40;99.90;;;;;;6271902;22;20015;-85
2023/01/13 14:21:24;;;;;;;9.93;2.40;;;8.00;99.90;;;;;;6273067;22;20031;-86
2023/01/13 14:23:55;;;;;;;14.95;2.08;;;8.30;99.90;;;;;;6280500;22;20404;-85
2023/01/13 14:26:27;;;;;;;14.77;1.67;;;8.30;99.90;;;;;;6303894;22;20452;-84
2023/01/13 14:28:54;;;;;;;16.48;2.63;;;8.50;99.90;;;;;;6276133;22;20015;-84
2023/01/13 14:31:20;;;;;;;13.25;2.30;;;8.30;99.90;;;;;;6276228;22;20090;-82
2023/01/13 14:33:52;;;;;;;16.63;1.77;;;8.40;99.90;;;;;;6303874;22;20019;-84
2023/01/13 14:36:18;;;;;;;11.90;2.20;;;9.40;99.90;;;;;;6303667;22;20090;-83
2023/01/13 14:39:03;;;;;;;12.88;2.10;;;8.40;99.90;;;;;;6303908;22;20061;-85